createdAt,value
2018-06-02T05:45:26.452Z,50.29
2018-06-02T05:47:53.919Z,58.23
2018-06-02T05:50:21.370Z,62.71
2018-06-02T05:52:48.905Z,62.67
2018-06-02T05:55:16.674Z,64.34
2018-06-02T05:57:44.070Z,65.26
2018-06-02T06:00:11.494Z,64.07
2018-06-02T06:02:39.211Z,63.35
2018-06-02T06:05:06.430Z,63.46
2018-06-02T06:07:33.854Z,61.06
2018-06-02T06:10:01.623Z,59.91
2018-06-02T06:12:29.084Z,58.41
2018-06-02T06:14:56.544Z,58.71
2018-06-02T06:17:23.996Z,57.14
2018-06-02T06:19:51.398Z,56.77
2018-06-02T06:22:18.889Z,58.33
2018-06-02T06:24:46.743Z,57.13
2018-06-02T06:27:13.899Z,57.13
2018-06-02T06:29:41.869Z,54.93
2018-06-02T06:32:08.985Z,54.78
2018-06-02T06:34:36.725Z,55.13
2018-06-02T06:37:04.321Z,55.61
2018-06-02T06:39:31.614Z,56.21
2018-06-02T06:41:59.120Z,56.58
2018-06-02T06:44:26.698Z,56.75
2018-06-02T06:46:54.615Z,55.71
2018-06-02T06:49:21.492Z,55.71
2018-06-02T06:51:48.922Z,55.74
2018-06-02T06:54:16.444Z,56.15
2018-06-02T06:56:43.832Z,55.87
2018-06-02T06:59:11.585Z,55.75
2018-06-02T07:01:38.883Z,55.50
2018-06-02T07:04:06.209Z,54.82
2018-06-02T07:06:33.663Z,55.36
2018-06-02T07:09:01.154Z,54.96
2018-06-02T07:11:28.697Z,55.07
2018-06-02T07:13:56.112Z,54.84
2018-06-02T07:16:23.617Z,58.36
2018-06-02T07:18:51.078Z,59.94
2018-06-02T07:21:18.534Z,60.26
2018-06-02T07:23:45.958Z,60.44
2018-06-02T07:26:13.420Z,60.99
2018-06-02T07:28:40.921Z,61.00
2018-06-02T07:31:08.459Z,60.51
2018-06-02T07:33:35.821Z,60.42
2018-06-02T07:36:03.425Z,60.66
2018-06-02T07:38:30.924Z,60.24
2018-06-02T07:40:58.252Z,59.68
2018-06-02T07:43:25.717Z,58.86
2018-06-02T07:45:53.519Z,58.39
2018-06-02T07:48:20.660Z,58.00
2018-06-02T07:50:48.070Z,57.73
2018-06-02T07:53:15.583Z,57.02
2018-06-02T07:55:43.003Z,56.51
2018-06-02T07:58:10.454Z,56.54
2018-06-02T08:00:37.915Z,56.25
2018-06-02T08:03:05.335Z,55.99
2018-06-02T08:05:32.787Z,55.65
2018-06-02T08:08:00.308Z,55.30
2018-06-02T08:10:27.686Z,54.55
2018-06-02T08:12:55.609Z,53.76
2018-06-02T08:15:23.196Z,52.56
2018-06-02T08:17:50.723Z,52.30
2018-06-02T08:20:18.225Z,50.90
2018-06-02T08:22:45.908Z,50.38
2018-06-02T08:25:13.279Z,50.64
2018-06-02T08:27:40.874Z,49.96
2018-06-02T08:30:08.230Z,48.75
2018-06-02T08:32:35.627Z,49.43
2018-06-02T08:35:03.097Z,46.97
2018-06-02T08:37:30.514Z,47.18
2018-06-02T08:39:58.138Z,45.33
2018-06-02T08:42:25.480Z,46.81
2018-06-02T08:44:52.886Z,46.22
2018-06-02T08:47:21.115Z,45.07
2018-06-02T08:49:48.566Z,45.33
2018-06-02T08:52:15.988Z,43.83
2018-06-02T08:54:43.723Z,45.63
2018-06-02T08:57:10.991Z,42.82
2018-06-02T08:59:38.871Z,42.07
2018-06-02T09:02:05.924Z,43.21
2018-06-02T09:04:33.838Z,41.78
2018-06-02T09:07:00.839Z,40.29
2018-06-02T09:09:28.260Z,38.95
2018-06-02T09:11:56.177Z,38.49
2018-06-02T09:14:23.296Z,39.39
2018-06-02T09:16:50.717Z,38.81
2018-06-02T09:19:18.390Z,38.51
2018-06-02T09:21:45.923Z,39.51
2018-06-02T09:24:13.285Z,40.81
2018-06-02T09:26:40.754Z,41.57
2018-06-02T09:29:08.202Z,40.90
2018-06-02T09:31:35.922Z,40.09
2018-06-02T09:34:03.370Z,40.72
2018-06-02T09:36:30.789Z,41.01
2018-06-02T09:39:04.387Z,41.12
2018-06-02T09:41:31.874Z,40.11
2018-06-02T09:43:59.744Z,41.24
2018-06-02T09:46:27.182Z,41.29
2018-06-02T09:48:54.624Z,42.58
2018-06-02T09:51:22.113Z,41.93
2018-06-02T09:53:49.695Z,44.10
2018-06-02T09:56:17.254Z,43.42
2018-06-02T09:58:44.764Z,43.59
2018-06-02T10:01:12.642Z,43.75
2018-06-02T10:03:40.211Z,43.86
2018-06-02T10:06:08.138Z,43.06
2018-06-02T10:08:35.044Z,44.71
2018-06-02T10:11:02.462Z,44.50
2018-06-02T10:13:31.858Z,45.07
2018-06-02T10:15:59.593Z,41.60
2018-06-02T10:18:27.045Z,43.15
2018-06-02T10:20:54.599Z,42.50
2018-06-02T10:23:22.503Z,41.72
2018-06-02T10:25:56.062Z,41.74
2018-06-02T10:28:23.446Z,42.17
2018-06-02T10:30:50.989Z,43.04
2018-06-02T10:33:18.405Z,42.44
2018-06-02T10:35:46.010Z,43.40
2018-06-02T10:38:13.995Z,42.59
2018-06-02T10:40:41.529Z,43.05
2018-06-02T10:43:08.947Z,43.65
2018-06-02T10:48:11.071Z,43.09
2018-06-02T10:50:38.560Z,42.82
2018-06-02T10:53:06.014Z,42.72
2018-06-02T10:55:33.680Z,43.09
2018-06-02T10:58:01.236Z,42.95
2018-06-02T11:00:28.729Z,43.14
2018-06-02T11:02:56.032Z,43.04
2018-06-02T11:05:23.233Z,43.14
2018-06-02T11:07:50.681Z,42.86
2018-06-02T11:10:18.527Z,43.37
2018-06-02T11:12:45.959Z,43.21
2018-06-02T11:15:13.262Z,43.38
2018-06-02T11:17:40.680Z,42.56
2018-06-02T11:20:08.134Z,43.14
2018-06-02T11:22:35.619Z,43.07
2018-06-02T11:25:03.068Z,43.28
2018-06-02T11:27:30.752Z,43.02
2018-06-02T11:29:58.595Z,43.27
2018-06-02T11:32:25.391Z,43.18
2018-06-02T11:34:52.843Z,42.78
2018-06-02T11:37:20.285Z,42.99
2018-06-02T11:39:47.966Z,42.80
2018-06-02T11:42:15.186Z,43.15
2018-06-02T11:44:42.705Z,42.64
2018-06-02T11:47:10.119Z,42.66
2018-06-02T11:49:37.573Z,42.47
2018-06-02T11:52:05.260Z,42.87
2018-06-02T11:54:32.472Z,42.83
2018-06-02T11:57:00.215Z,41.83
2018-06-02T11:59:27.405Z,42.20
2018-06-02T12:01:54.859Z,42.41
2018-06-02T12:04:22.298Z,42.17
2018-06-02T12:06:49.717Z,42.07
2018-06-02T12:09:17.162Z,41.75
2018-06-02T12:11:44.610Z,40.81
2018-06-02T12:14:12.093Z,41.63
2018-06-02T12:16:39.745Z,41.28
2018-06-02T12:19:07.138Z,41.06
2018-06-02T12:21:34.560Z,41.66
2018-06-02T12:24:01.994Z,41.22
2018-06-02T12:26:29.477Z,42.06
2018-06-02T12:28:56.927Z,42.03
2018-06-02T12:31:24.373Z,42.16
2018-06-02T12:33:51.823Z,41.75
2018-06-02T12:36:19.308Z,41.98
2018-06-02T12:38:46.684Z,41.78
2018-06-02T12:41:14.132Z,41.87
2018-06-02T12:43:41.768Z,42.14
2018-06-02T12:46:09.028Z,41.98
2018-06-02T12:48:36.504Z,42.00
2018-06-02T12:51:03.954Z,41.91
2018-06-02T12:53:31.429Z,41.96
2018-06-02T12:55:58.873Z,41.86
2018-06-02T12:58:26.293Z,41.54
2018-06-02T13:00:54.668Z,41.63
2018-06-02T13:03:21.225Z,41.47
2018-06-02T13:05:48.935Z,41.74
2018-06-02T13:08:16.086Z,41.78
2018-06-02T13:10:43.530Z,41.64
2018-06-02T13:13:12.264Z,41.71
2018-06-02T13:15:38.427Z,41.77
2018-06-02T13:18:05.972Z,41.65
2018-06-02T13:20:33.317Z,41.53
2018-06-02T13:23:00.766Z,41.58
2018-06-02T13:25:28.257Z,41.68
2018-06-02T13:27:55.705Z,41.74
2018-06-02T13:30:23.154Z,41.39
2018-06-02T13:32:50.598Z,41.65
2018-06-02T13:35:18.182Z,41.53
2018-06-02T13:37:45.675Z,41.81
2018-06-02T13:40:12.925Z,41.69
2018-06-02T13:42:40.372Z,41.57
2018-06-02T13:45:07.806Z,41.59
2018-06-02T13:47:35.349Z,41.30
2018-06-02T13:50:03.164Z,41.58
2018-06-02T13:52:30.640Z,41.27
2018-06-02T13:54:58.050Z,41.29
2018-06-02T13:57:25.639Z,41.19
2018-06-02T13:59:52.974Z,40.75
2018-06-02T14:02:20.487Z,40.88
2018-06-02T14:04:48.629Z,40.88
2018-06-02T14:07:16.008Z,40.76
2018-06-02T14:09:43.360Z,40.82
2018-06-02T14:12:10.972Z,40.66
2018-06-02T14:14:38.383Z,40.67
2018-06-02T14:17:05.664Z,40.81
2018-06-02T14:19:33.134Z,40.68
2018-06-02T14:22:00.552Z,40.68
2018-06-02T14:24:27.996Z,40.87
2018-06-02T14:26:55.485Z,40.76
2018-06-02T14:29:22.936Z,40.81
2018-06-02T14:31:50.366Z,40.79
2018-06-02T14:34:17.812Z,40.69
2018-06-02T14:36:45.235Z,40.60
2018-06-02T14:39:12.709Z,40.69
2018-06-02T14:41:40.272Z,40.72
2018-06-02T14:44:07.614Z,40.53
2018-06-02T14:46:35.491Z,40.35
2018-06-02T14:49:02.518Z,40.44
2018-06-02T14:51:29.949Z,40.17
2018-06-02T14:53:57.389Z,40.22
2018-06-02T14:56:24.801Z,39.96
2018-06-02T14:58:52.274Z,39.89
2018-06-02T15:01:19.780Z,39.68
2018-06-02T15:03:47.227Z,39.52
2018-06-02T15:06:14.709Z,39.44
2018-06-02T15:08:42.411Z,39.60
2018-06-02T15:11:10.547Z,39.62
2018-06-02T15:13:37.374Z,39.41
2018-06-02T15:16:04.575Z,39.37
2018-06-02T15:18:31.978Z,39.31
2018-06-02T15:20:59.424Z,38.94
2018-06-02T15:23:27.222Z,38.93
2018-06-02T15:25:54.377Z,39.14
2018-06-02T15:28:21.854Z,39.15
2018-06-02T15:30:49.241Z,39.22
2018-06-02T15:33:16.715Z,39.14
2018-06-02T15:35:44.161Z,39.08
2018-06-02T15:38:11.577Z,39.06
2018-06-02T15:40:39.236Z,39.10
2018-06-02T15:43:06.644Z,39.11
2018-06-02T15:45:34.052Z,38.96
2018-06-02T15:48:01.385Z,38.72
2018-06-02T15:50:28.835Z,38.65
2018-06-02T15:52:56.276Z,38.58
2018-06-02T15:55:23.717Z,38.58
2018-06-02T15:57:51.132Z,38.34
2018-06-02T16:00:19.314Z,38.30
2018-06-02T16:02:46.029Z,38.49
2018-06-02T16:05:13.498Z,38.17
2018-06-02T16:07:40.942Z,38.11
2018-06-02T16:10:08.350Z,38.04
2018-06-02T16:12:35.829Z,38.22
2018-06-02T16:15:03.244Z,38.13
2018-06-02T16:17:30.685Z,38.16
2018-06-02T16:19:58.512Z,38.12
2018-06-02T16:22:26.339Z,38.00
2018-06-02T16:24:53.162Z,37.90
2018-06-02T16:27:20.642Z,37.88
2018-06-02T16:29:48.094Z,37.81
2018-06-02T16:32:15.542Z,37.78
2018-06-02T16:34:43.081Z,37.74
2018-06-02T16:37:10.521Z,37.63
2018-06-02T16:39:38.175Z,37.50
2018-06-02T16:42:05.416Z,37.48
2018-06-02T16:44:32.856Z,37.46
2018-06-02T16:47:01.344Z,37.44
2018-06-02T16:49:28.419Z,37.50
2018-06-02T16:51:55.830Z,37.51
2018-06-02T16:54:23.274Z,37.60
2018-06-02T16:56:50.752Z,37.55
2018-06-02T16:59:18.198Z,37.49
2018-06-02T17:01:45.860Z,37.44
2018-06-02T17:04:13.051Z,37.45
2018-06-02T17:06:40.591Z,37.45
2018-06-02T17:09:07.972Z,37.59
2018-06-02T17:11:35.817Z,37.71
2018-06-02T17:14:02.924Z,37.74
2018-06-02T17:16:30.313Z,37.80
2018-06-02T17:18:58.400Z,37.75
2018-06-02T17:21:25.265Z,37.87
2018-06-02T17:23:52.708Z,38.02
2018-06-02T17:26:20.149Z,38.00
2018-06-02T17:28:47.597Z,38.01
2018-06-02T17:31:15.064Z,38.05
2018-06-02T17:33:42.556Z,38.10
2018-06-02T17:36:10.003Z,38.21
2018-06-02T17:38:37.657Z,38.22
2018-06-02T17:41:05.018Z,38.23
2018-06-02T17:43:32.308Z,38.24
2018-06-02T17:45:59.756Z,38.25
2018-06-02T17:48:27.281Z,38.46
2018-06-02T17:50:54.669Z,38.45
2018-06-02T17:53:22.082Z,38.51
2018-06-02T17:55:49.566Z,38.59
2018-06-02T17:58:17.656Z,38.67
2018-06-02T18:00:44.449Z,38.65
2018-06-02T18:03:12.000Z,38.77
2018-06-02T18:05:39.339Z,38.85
2018-06-02T18:08:06.992Z,38.79
2018-06-02T18:10:34.809Z,39.04
2018-06-02T18:13:01.671Z,39.07
2018-06-02T18:15:29.150Z,39.07
2018-06-02T18:17:56.529Z,39.20
2018-06-02T18:20:23.973Z,39.30
2018-06-02T18:22:51.561Z,39.25
2018-06-02T18:25:19.045Z,39.26
2018-06-02T18:27:46.452Z,39.17
2018-06-02T18:30:14.408Z,39.20
2018-06-02T18:32:41.975Z,39.40
2018-06-02T18:35:09.333Z,39.46
2018-06-02T18:37:36.774Z,39.52
2018-06-02T18:40:04.221Z,39.48
2018-06-02T18:42:31.685Z,39.61
2018-06-02T18:44:59.286Z,39.66
2018-06-02T18:47:26.717Z,39.63
2018-06-02T18:49:54.016Z,39.81
2018-06-02T18:52:21.485Z,39.79
2018-06-02T18:54:48.881Z,39.90
2018-06-02T18:57:16.528Z,39.86
2018-06-02T18:59:44.177Z,39.76
2018-06-02T19:02:11.427Z,39.90
2018-06-02T19:04:38.837Z,40.01
2018-06-02T19:07:06.321Z,40.00
2018-06-02T19:09:34.228Z,40.01
2018-06-02T19:12:01.178Z,40.07
2018-06-02T19:14:28.659Z,40.07
2018-06-02T19:16:56.608Z,40.02
2018-06-02T19:19:23.551Z,40.10
2018-06-02T19:21:51.189Z,40.01
2018-06-02T19:24:18.513Z,39.96
2018-06-02T19:26:45.966Z,40.05
2018-06-02T19:29:13.531Z,40.04
2018-06-02T19:31:40.849Z,39.99
2018-06-02T19:34:08.330Z,39.12
2018-06-02T19:36:35.741Z,39.82
2018-06-02T19:39:03.246Z,40.74
2018-06-02T19:41:32.425Z,41.18
2018-06-02T19:43:58.110Z,41.75
2018-06-02T19:46:25.565Z,43.24
2018-06-02T19:48:53.018Z,43.66
2018-06-02T19:51:20.546Z,44.24
2018-06-02T19:53:47.922Z,44.45
2018-06-02T19:56:16.083Z,44.48
2018-06-02T19:58:43.952Z,44.93
2018-06-02T20:01:11.180Z,45.82
2018-06-02T20:03:38.795Z,46.06
2018-06-02T20:06:06.120Z,46.16
2018-06-02T20:08:33.562Z,46.21
2018-06-02T20:11:01.014Z,46.28
2018-06-02T20:13:28.461Z,45.51
2018-06-02T20:15:55.872Z,44.83
2018-06-02T20:18:23.349Z,45.17
2018-06-02T20:20:50.817Z,45.49
2018-06-02T20:23:18.257Z,45.18
2018-06-02T20:25:47.342Z,45.38
2018-06-02T20:28:14.773Z,45.15
2018-06-02T20:30:42.217Z,45.03
2018-06-02T20:33:09.714Z,45.33
2018-06-02T20:35:37.161Z,45.01
2018-06-02T20:38:04.610Z,44.48
2018-06-02T20:40:32.045Z,44.60
2018-06-02T20:42:59.493Z,44.52
2018-06-02T20:45:26.903Z,45.07
2018-06-02T20:47:54.359Z,45.63
2018-06-02T20:50:21.840Z,45.53
2018-06-02T20:52:49.801Z,45.90
2018-06-02T20:55:17.253Z,45.93
2018-06-02T20:57:45.373Z,44.71
2018-06-02T21:00:12.831Z,43.45
2018-06-02T21:02:40.278Z,42.59
2018-06-02T21:05:07.834Z,42.42
2018-06-02T21:07:35.256Z,42.24
2018-06-02T21:10:02.744Z,42.39
2018-06-02T21:12:30.314Z,42.17
2018-06-02T21:14:57.869Z,42.13
2018-06-02T21:17:26.131Z,42.17
2018-06-02T21:19:53.548Z,42.11
2018-06-02T21:22:21.184Z,42.08
2018-06-02T21:24:48.635Z,42.00
2018-06-02T21:27:16.112Z,42.11
2018-06-02T21:29:43.531Z,42.09
2018-06-02T21:32:11.022Z,41.92
2018-06-02T21:34:39.041Z,42.03
2018-06-02T21:37:07.160Z,42.09
2018-06-02T21:39:34.950Z,42.14
2018-06-02T21:42:02.076Z,41.97
2018-06-02T21:44:29.586Z,42.06
2018-06-02T21:46:57.017Z,42.04
2018-06-02T21:49:24.881Z,42.01
2018-06-02T21:51:52.938Z,42.06
2018-06-02T21:54:20.387Z,42.05
2018-06-02T21:56:47.837Z,42.04
2018-06-02T21:59:15.362Z,42.13
2018-06-02T22:01:43.279Z,42.16
2018-06-02T22:04:10.274Z,42.22
2018-06-02T22:06:37.786Z,42.20
2018-06-02T22:09:05.265Z,42.32
2018-06-02T22:11:32.724Z,42.31
2018-06-02T22:14:00.189Z,42.26
2018-06-02T22:16:27.632Z,42.48
2018-06-02T22:18:55.077Z,42.38
2018-06-02T22:21:22.532Z,42.45
2018-06-02T22:23:49.989Z,42.35
2018-06-02T22:26:17.555Z,42.38
2018-06-02T22:28:45.082Z,42.50
2018-06-02T22:31:12.526Z,42.33
2018-06-02T22:33:39.937Z,42.30
2018-06-02T22:36:07.387Z,42.33
2018-06-02T22:38:34.833Z,42.25
2018-06-02T22:41:02.314Z,42.21
2018-06-02T22:43:32.151Z,42.23
2018-06-02T22:45:59.372Z,42.20
2018-06-02T22:48:26.897Z,42.15
2018-06-02T22:50:54.829Z,42.11
2018-06-02T22:53:22.329Z,42.09
2018-06-02T22:55:49.722Z,42.13
2018-06-02T22:58:17.337Z,42.09
2018-06-02T23:00:44.639Z,42.10
2018-06-02T23:03:12.082Z,42.09
2018-06-02T23:05:40.645Z,42.09
2018-06-02T23:08:07.730Z,42.04
2018-06-02T23:10:35.130Z,42.05
2018-06-02T23:13:02.608Z,42.02
2018-06-02T23:15:30.049Z,42.19
2018-06-02T23:17:58.381Z,41.64
2018-06-02T23:20:24.921Z,40.51
2018-06-02T23:22:52.405Z,40.64
2018-06-02T23:25:19.817Z,41.35
2018-06-02T23:27:47.269Z,40.98
2018-06-02T23:30:14.865Z,41.14
2018-06-02T23:32:43.193Z,41.60
2018-06-02T23:35:10.688Z,41.70
2018-06-02T23:37:38.386Z,41.59
2018-06-02T23:40:05.803Z,40.73
2018-06-02T23:42:33.246Z,40.30
2018-06-02T23:45:00.728Z,40.60
2018-06-02T23:47:28.138Z,40.80
2018-06-02T23:49:55.585Z,40.26
2018-06-02T23:52:23.085Z,40.53
2018-06-02T23:54:50.575Z,40.43
2018-06-02T23:57:18.015Z,39.91
2018-06-02T23:59:45.467Z,41.55
